| time (UTC) | temp C | wind direction | speed KPH | gust KPH | rain 1hr cm | rain 24hr cm | rain mn cm | humidity % | barometer mb |
| 20260906022820 | 27 | 332 | 0.0 | 3.2 | 0.00 | 0.00 | 0.00 | 81 | 1011.0 |
| 20260906022315 | 27 | 338 | 3.2 | 3.2 | 0.00 | 0.00 | 0.00 | 81 | 1010.6 |
| 20260906021810 | 27 | 346 | 3.2 | 3.2 | 0.00 | 0.00 | 0.00 | 81 | 1010.6 |
| 20260906021310 | 27 | 355 | 4.8 | 4.8 | 0.00 | 0.00 | 0.00 | 82 | 1010.8 |
| 20260906020810 | 27 | 1 | 1.6 | 3.2 | 0.00 | 0.00 | 0.00 | 82 | 1010.7 |
| 20260906020310 | 27 | 0 | 1.6 | 3.2 | 0.00 | 0.00 | 0.00 | 80 | 1010.5 |
| 20260906015809 | 28 | 50 | 0.0 | 0.0 | 0.00 | 0.00 | 0.00 | 80 | 1010.7 |
| 20260906015309 | 28 | 202 | 0.0 | 0.0 | 0.00 | 0.00 | 0.00 | 80 | 1010.5 |
| 20260906014809 | 27 | 242 | 0.0 | 0.0 | 0.00 | 0.00 | 0.00 | 81 | 1010.2 |
| 20260906014304 | 27 | 242 | 0.0 | 1.6 | 0.00 | 0.00 | 0.00 | 81 | 1010.5 |
| 20260906013801 | 27 | 322 | 0.0 | 0.0 | 0.00 | 0.00 | 0.00 | 81 | 1010.2 |
| 20260906013300 | 28 | 37 | 0.0 | 0.0 | 0.00 | 0.00 | 0.00 | 81 | 1010.2 |
| 20260906012756 | 28 | 22 | 0.0 | 1.6 | 0.00 | 0.00 | 0.00 | 79 | 1010.4 |
| 20260906012251 | 28 | 349 | 0.0 | 1.6 | 0.00 | 0.00 | 0.00 | 76 | 1010.2 |
| 20260906011746 | 29 | 333 | 0.0 | 0.0 | 0.00 | 0.00 | 0.00 | 74 | 1010.2 |
| 20260906011246 | 29 | 333 | 0.0 | 0.0 | 0.00 | 0.00 | 0.00 | 73 | 1010.2 |
| 20260906010742 | 30 | 333 | 0.0 | 0.0 | 0.00 | 0.00 | 0.00 | 72 | 1010.2 |
| 20260906010238 | 30 | 333 | 0.0 | 1.6 | 0.00 | 0.00 | 0.00 | 71 | 1010.1 |
| 20260906005733 | 30 | 355 | 1.6 | 1.6 | 0.00 | 0.00 | 0.00 | 70 | 1010.0 |
| 20260906005232 | 30 | 340 | 1.6 | 3.2 | 0.00 | 0.00 | 0.00 | 69 | 1010.0 |
| 20260906004731 | 30 | 334 | 1.6 | 3.2 | 0.00 | 0.00 | 0.00 | 69 | 1010.0 |
| 20260906004226 | 30 | 320 | 3.2 | 3.2 | 0.00 | 0.00 | 0.00 | 70 | 1009.8 |
| 20260906003721 | 30 | 318 | 3.2 | 3.2 | 0.00 | 0.00 | 0.00 | 69 | 1009.8 |
| 20260906003217 | 30 | 325 | 0.0 | 1.6 | 0.00 | 0.00 | 0.00 | 69 | 1010.0 |
| 20260906002717 | 31 | 330 | 3.2 | 4.8 | 0.00 | 0.00 | 0.00 | 68 | 1009.9 |
| 20260906002212 | 31 | 11 | 4.8 | 6.4 | 0.00 | 0.00 | 0.00 | 68 | 1010.0 |
| 20260906001707 | 31 | 8 | 3.2 | 4.8 | 0.00 | 0.00 | 0.00 | 69 | 1010.1 |
| 20260906001207 | 31 | 346 | 3.2 | 3.2 | 0.00 | 0.00 | 0.00 | 68 | 1010.2 |
| 20260906000703 | 31 | 353 | 3.2 | 4.8 | 0.00 | 0.00 | 0.00 | 67 | 1010.2 |
| 20260906000158 | 31 | 337 | 3.2 | 4.8 | 0.00 | 0.00 | 0.00 | 65 | 1010.3 |
| 20260905235656 | 31 | 337 | 4.8 | 4.8 | 0.00 | 0.00 | 0.00 | 65 | 1010.3 |
| 20260905235152 | 31 | 341 | 3.2 | 6.4 | 0.00 | 0.00 | 0.00 | 64 | 1010.5 |
| 20260905234647 | 31 | 3 | 4.8 | 6.4 | 0.00 | 0.00 | 0.00 | 64 | 1010.4 |
| 20260905234143 | 32 | 44 | 0.0 | 3.2 | 0.00 | 0.00 | 0.00 | 66 | 1010.4 |
| 20260905233637 | 32 | 50 | 0.0 | 1.6 | 0.00 | 0.00 | 0.00 | 64 | 1010.3 |
| 20260905233136 | 32 | 35 | 0.0 | 0.0 | 0.00 | 0.00 | 0.00 | 63 | 1010.2 |
| 20260905232632 | 32 | 297 | 0.0 | 0.0 | 0.00 | 0.00 | 0.00 | 62 | 1010.4 |
| 20260905232128 | 32 | 299 | 0.0 | 0.0 | 0.00 | 0.00 | 0.00 | 62 | 1010.2 |
| 20260905231623 | 32 | 269 | 0.0 | 1.6 | 0.00 | 0.00 | 0.00 | 62 | 1010.2 |
| 20260905231119 | 32 | 283 | 0.0 | 0.0 | 0.00 | 0.00 | 0.00 | 60 | 1010.1 |
| 20260905230615 | 32 | 287 | 0.0 | 1.6 | 0.00 | 0.00 | 0.00 | 59 | 1010.1 |
| 20260905230113 | 32 | 284 | 0.0 | 0.0 | 0.00 | 0.00 | 0.00 | 58 | 1010.0 |
| 20260905225612 | 32 | 242 | 0.0 | 1.6 | 0.00 | 0.00 | 0.00 | 59 | 1010.0 |
| 20260905225108 | 32 | 315 | 0.0 | 4.8 | 0.00 | 0.00 | 0.00 | 66 | 1010.1 |
| 20260905224607 | 32 | 316 | 6.4 | 9.7 | 0.00 | 0.00 | 0.00 | 62 | 1010.4 |
| 20260905224107 | 33 | 314 | 8.0 | 8.0 | 0.00 | 0.00 | 0.00 | 60 | 1010.2 |
| 20260905223604 | 33 | 308 | 6.4 | 8.0 | 0.00 | 0.00 | 0.00 | 64 | 1010.1 |
| 20260905223101 | 33 | 297 | 0.0 | 1.6 | 0.00 | 0.00 | 0.00 | 62 | 1009.9 |
| 20260905222600 | 33 | 326 | 0.0 | 1.6 | 0.00 | 0.00 | 0.00 | 64 | 1010.0 |
| 20260905222055 | 35 | 339 | 1.6 | 3.2 | 0.00 | 0.00 | 0.00 | 60 | 1009.9 |
| 20260905221552 | 35 | 304 | 0.0 | 1.6 | 0.00 | 0.00 | 0.00 | 58 | 1010.1 |
| 20260905221047 | 35 | 281 | 1.6 | 1.6 | 0.00 | 0.00 | 0.00 | 55 | 1009.9 |
| 20260905220543 | 35 | 300 | 0.0 | 1.6 | 0.00 | 0.00 | 0.00 | 51 | 1010.2 |
| 20260905220039 | 35 | 37 | 0.0 | 0.0 | 0.00 | 0.00 | 0.00 | 51 | 1010.3 |
| 20260905215538 | 36 | 326 | 0.0 | 0.0 | 0.00 | 0.00 | 0.00 | 50 | 1010.2 |
| 20260905215035 | 36 | 297 | 0.0 | 1.6 | 0.00 | 0.00 | 0.00 | 49 | 1010.3 |
| 20260905214530 | 37 | 7 | 0.0 | 0.0 | 0.00 | 0.00 | 0.00 | 48 | 1010.2 |
| 20260905214025 | 37 | 315 | 0.0 | 0.0 | 0.00 | 0.00 | 0.00 | 47 | 1010.3 |
| 20260905213520 | 38 | 341 | 3.2 | 3.2 | 0.00 | 0.00 | 0.00 | 51 | 1010.3 |
| 20260905213016 | 38 | 318 | 3.2 | 6.4 | 0.00 | 0.00 | 0.00 | 45 | 1010.3 |
| 20260905212511 | 39 | 246 | 0.0 | 3.2 | 0.00 | 0.00 | 0.00 | 46 | 1010.4 |
| 20260905212010 | 38 | 262 | 0.0 | 3.2 | 0.00 | 0.00 | 0.00 | 45 | 1010.3 |
| 20260905211505 | 37 | 310 | 0.0 | 0.0 | 0.00 | 0.00 | 0.00 | 51 | 1010.3 |
| 20260905211001 | 37 | 303 | 1.6 | 3.2 | 0.00 | 0.00 | 0.00 | 45 | 1010.3 |
| 20260905210457 | 37 | 135 | 0.0 | 1.6 | 0.00 | 0.00 | 0.00 | 48 | 1010.5 |
| 20260905205956 | 37 | 331 | 3.2 | 9.7 | 0.00 | 0.00 | 0.00 | 45 | 1010.4 |
| 20260905205450 | 38 | 313 | 4.8 | 4.8 | 0.00 | 0.00 | 0.00 | 46 | 1010.4 |
| 20260905204949 | 38 | 269 | 0.0 | 0.0 | 0.00 | 0.00 | 0.00 | 47 | 1010.6 |
| 20260905204445 | 38 | 52 | 0.0 | 3.2 | 0.00 | 0.00 | 0.00 | 45 | 1010.5 |
| 20260905203944 | 38 | 315 | 3.2 | 3.2 | 0.00 | 0.00 | 0.00 | 46 | 1010.7 |
| 20260905203440 | 37 | 284 | 1.6 | 1.6 | 0.00 | 0.00 | 0.00 | 50 | 1010.7 |
| 20260905202936 | 36 | 359 | 4.8 | 8.0 | 0.00 | 0.00 | 0.00 | 53 | 1010.9 |
| 20260905202431 | 37 | 9 | 3.2 | 4.8 | 0.00 | 0.00 | 0.00 | 48 | 1010.6 |
| 20260905201926 | 37 | 297 | 0.0 | 1.6 | 0.00 | 0.00 | 0.00 | 47 | 1010.8 |
| 20260905201421 | 36 | 291 | 0.0 | 4.8 | 0.00 | 0.00 | 0.00 | 52 | 1011.0 |
| 20260905200921 | 36 | 29 | 0.0 | 1.6 | 0.00 | 0.00 | 0.00 | 52 | 1011.1 |
| 20260905200417 | 36 | 230 | 0.0 | 1.6 | 0.00 | 0.00 | 0.00 | 51 | 1011.2 |
| 20260905195915 | 36 | 345 | 0.0 | 1.6 | 0.00 | 0.00 | 0.00 | 51 | 1011.2 |
| 20260905195410 | 36 | 342 | 3.2 | 3.2 | 0.00 | 0.00 | 0.00 | 50 | 1011.3 |
| 20260905194906 | 36 | 309 | 0.0 | 1.6 | 0.00 | 0.00 | 0.00 | 53 | 1011.4 |
| 20260905194406 | 36 | 244 | 0.0 | 1.6 | 0.00 | 0.00 | 0.00 | 52 | 1011.6 |
| 20260905193906 | 36 | 291 | 1.6 | 4.8 | 0.00 | 0.00 | 0.00 | 50 | 1011.7 |
| 20260905193400 | 36 | 255 | 0.0 | 1.6 | 0.00 | 0.00 | 0.00 | 50 | 1011.7 |
| 20260905192856 | 36 | 22 | 1.6 | 3.2 | 0.00 | 0.00 | 0.00 | 51 | 1011.6 |
| 20260905192351 | 36 | 285 | 0.0 | 6.4 | 0.00 | 0.00 | 0.00 | 49 | 1011.7 |
| 20260905191851 | 37 | 0 | 4.8 | 6.4 | 0.00 | 0.00 | 0.00 | 47 | 1011.9 |
| 20260905191350 | 36 | 50 | 0.0 | 8.0 | 0.00 | 0.00 | 0.00 | 51 | 1011.7 |
| 20260905190850 | 36 | 26 | 6.4 | 12.9 | 0.00 | 0.00 | 0.00 | 49 | 1011.7 |
| 20260905190348 | 36 | 11 | 6.4 | 9.7 | 0.00 | 0.00 | 0.00 | 51 | 1011.9 |
| 20260905185847 | 36 | 16 | 0.0 | 8.0 | 0.00 | 0.00 | 0.00 | 49 | 1012.0 |
| 20260905185343 | 36 | 345 | 4.8 | 8.0 | 0.00 | 0.00 | 0.00 | 50 | 1012.0 |
| 20260905184842 | 36 | 353 | 11.3 | 14.5 | 0.00 | 0.00 | 0.00 | 51 | 1012.1 |
| 20260905184341 | 36 | 355 | 4.8 | 8.0 | 0.00 | 0.00 | 0.00 | 53 | 1012.1 |
| 20260905183839 | 36 | 357 | 6.4 | 12.9 | 0.00 | 0.00 | 0.00 | 48 | 1012.3 |
| 20260905183335 | 37 | 348 | 1.6 | 4.8 | 0.00 | 0.00 | 0.00 | 49 | 1012.3 |
| 20260905182836 | 37 | 317 | 3.2 | 4.8 | 0.00 | 0.00 | 0.00 | 47 | 1012.2 |
| 20260905182335 | 36 | 251 | 3.2 | 3.2 | 0.00 | 0.00 | 0.00 | 51 | 1012.2 |
| 20260905181831 | 36 | 284 | 1.6 | 3.2 | 0.00 | 0.00 | 0.00 | 49 | 1012.5 |
| 20260905181330 | 36 | 306 | 3.2 | 4.8 | 0.00 | 0.00 | 0.00 | 48 | 1012.5 |
| 20260905180829 | 36 | 274 | 1.6 | 8.0 | 0.00 | 0.00 | 0.00 | 52 | 1012.5 |
| 20260905180325 | 36 | 251 | 1.6 | 3.2 | 0.00 | 0.00 | 0.00 | 53 | 1012.6 |
| 20260905175819 | 36 | 327 | 3.2 | 4.8 | 0.00 | 0.00 | 0.00 | 50 | 1012.5 |
| 20260905175314 | 36 | 293 | 1.6 | 4.8 | 0.00 | 0.00 | 0.00 | 54 | 1012.6 |
| 20260905174809 | 36 | 287 | 3.2 | 6.4 | 0.00 | 0.00 | 0.00 | 51 | 1012.7 |
| 20260905174305 | 36 | 237 | 1.6 | 4.8 | 0.00 | 0.00 | 0.00 | 52 | 1012.7 |
| 20260905173801 | 35 | 265 | 1.6 | 6.4 | 0.00 | 0.00 | 0.00 | 54 | 1012.9 |
| 20260905173257 | 35 | 292 | 1.6 | 4.8 | 0.00 | 0.00 | 0.00 | 51 | 1012.8 |
| 20260905172756 | 36 | 332 | 6.4 | 9.7 | 0.00 | 0.00 | 0.00 | 50 | 1012.7 |
| 20260905172254 | 36 | 232 | 1.6 | 3.2 | 0.00 | 0.00 | 0.00 | 54 | 1012.8 |
| 20260905171751 | 35 | 286 | 3.2 | 4.8 | 0.00 | 0.00 | 0.00 | 55 | 1012.9 |
| 20260905171247 | 35 | 310 | 4.8 | 6.4 | 0.00 | 0.00 | 0.00 | 55 | 1013.0 |
| 20260905170743 | 35 | 352 | 8.0 | 9.7 | 0.00 | 0.00 | 0.00 | 52 | 1012.9 |
| 20260905170239 | 35 | 288 | 0.0 | 6.4 | 0.00 | 0.00 | 0.00 | 54 | 1013.1 |
| 20260905165738 | 35 | 309 | 0.0 | 6.4 | 0.00 | 0.00 | 0.00 | 51 | 1013.3 |
| 20260905165234 | 35 | 329 | 6.4 | 9.7 | 0.00 | 0.00 | 0.00 | 55 | 1013.3 |
| 20260905164733 | 35 | 337 | 4.8 | 6.4 | 0.00 | 0.00 | 0.00 | 53 | 1013.2 |
| 20260905164228 | 35 | 333 | 8.0 | 8.0 | 0.00 | 0.00 | 0.00 | 52 | 1013.3 |
| 20260905163724 | 35 | 338 | 4.8 | 11.3 | 0.00 | 0.00 | 0.00 | 54 | 1013.3 |
| 20260905163220 | 35 | 343 | 4.8 | 8.0 | 0.00 | 0.00 | 0.00 | 54 | 1013.4 |
| 20260905162717 | 35 | 243 | 1.6 | 3.2 | 0.00 | 0.00 | 0.00 | 58 | 1013.2 |
| 20260905162216 | 34 | 217 | 0.0 | 3.2 | 0.00 | 0.00 | 0.00 | 55 | 1013.4 |
| 20260905161711 | 34 | 317 | 6.4 | 8.0 | 0.00 | 0.00 | 0.00 | 54 | 1013.5 |
| 20260905161209 | 34 | 299 | 1.6 | 4.8 | 0.00 | 0.00 | 0.00 | 56 | 1013.4 |
| 20260905160708 | 34 | 355 | 8.0 | 8.0 | 0.00 | 0.00 | 0.00 | 57 | 1013.6 |
| 20260905160207 | 34 | 304 | 0.0 | 3.2 | 0.00 | 0.00 | 0.00 | 57 | 1013.6 |
| 20260905155702 | 33 | 321 | 0.0 | 3.2 | 0.00 | 0.00 | 0.00 | 56 | 1013.7 |
| 20260905155202 | 33 | 298 | 3.2 | 3.2 | 0.00 | 0.00 | 0.00 | 58 | 1013.5 |
| 20260905154655 | 33 | 321 | 3.2 | 3.2 | 0.00 | 0.00 | 0.00 | 61 | 1013.5 |
| 20260905154151 | 33 | 315 | 6.4 | 11.3 | 0.00 | 0.00 | 0.00 | 60 | 1013.7 |
| 20260905153647 | 33 | 329 | 4.8 | 8.0 | 0.00 | 0.00 | 0.00 | 57 | 1013.8 |
| 20260905153142 | 33 | 312 | 3.2 | 4.8 | 0.00 | 0.00 | 0.00 | 61 | 1013.7 |
| 20260905152637 | 33 | 309 | 3.2 | 4.8 | 0.00 | 0.00 | 0.00 | 63 | 1013.8 |
| 20260905152132 | 33 | 283 | 0.0 | 3.2 | 0.00 | 0.00 | 0.00 | 69 | 1013.7 |
| 20260905151626 | 32 | 239 | 3.2 | 3.2 | 0.00 | 0.00 | 0.00 | 66 | 1013.8 |
| 20260905151122 | 32 | 233 | 0.0 | 3.2 | 0.00 | 0.00 | 0.00 | 67 | 1013.8 |
| 20260905150617 | 32 | 309 | 1.6 | 1.6 | 0.00 | 0.00 | 0.00 | 69 | 1013.6 |
| 20260905150115 | 32 | 0 | 3.2 | 6.4 | 0.00 | 0.00 | 0.00 | 67 | 1013.5 |
| 20260905145614 | 32 | 24 | 1.6 | 3.2 | 0.00 | 0.00 | 0.00 | 68 | 1013.7 |
| 20260905145113 | 31 | 358 | 3.2 | 6.4 | 0.00 | 0.00 | 0.00 | 70 | 1013.6 |
| 20260905144608 | 31 | 1 | 3.2 | 8.0 | 0.00 | 0.00 | 0.00 | 68 | 1013.7 |
| 20260905144108 | 31 | 319 | 3.2 | 8.0 | 0.00 | 0.00 | 0.00 | 71 | 1013.4 |
| 20260905143608 | 31 | 9 | 6.4 | 9.7 | 0.00 | 0.00 | 0.00 | 71 | 1013.7 |
| 20260905143103 | 30 | 344 | 4.8 | 6.4 | 0.00 | 0.00 | 0.00 | 74 | 1013.5 |
| 20260905142602 | 30 | 352 | 4.8 | 6.4 | 0.00 | 0.00 | 0.00 | 76 | 1013.7 |
| 20260905142056 | 30 | 351 | 6.4 | 9.7 | 0.00 | 0.00 | 0.00 | 77 | 1013.4 |
| 20260905141555 | 30 | 345 | 3.2 | 9.7 | 0.00 | 0.00 | 0.00 | 76 | 1013.7 |
| 20260905141053 | 29 | 341 | 3.2 | 8.0 | 0.00 | 0.00 | 0.00 | 78 | 1013.6 |
| 20260905140553 | 29 | 334 | 3.2 | 8.0 | 0.00 | 0.00 | 0.00 | 81 | 1013.6 |
| 20260905140051 | 28 | 354 | 6.4 | 8.0 | 0.00 | 0.00 | 0.00 | 80 | 1013.6 |
| 20260905135547 | 28 | 337 | 4.8 | 4.8 | 0.00 | 0.00 | 0.00 | 84 | 1013.6 |
| 20260905135047 | 28 | 314 | 3.2 | 6.4 | 0.00 | 0.00 | 0.00 | 82 | 1013.8 |
| 20260905134542 | 28 | 320 | 3.2 | 3.2 | 0.00 | 0.00 | 0.00 | 83 | 1013.5 |
| 20260905134041 | 28 | 313 | 3.2 | 6.4 | 0.00 | 0.00 | 0.00 | 81 | 1013.7 |
| 20260905133537 | 27 | 357 | 3.2 | 4.8 | 0.00 | 0.00 | 0.00 | 88 | 1013.5 |
| 20260905133036 | 27 | 300 | 0.0 | 3.2 | 0.00 | 0.00 | 0.00 | 90 | 1013.6 |
| 20260905132536 | 27 | 195 | 0.0 | 0.0 | 0.00 | 0.00 | 0.00 | 92 | 1013.5 |
| 20260905132031 | 26 | 49 | 0.0 | 3.2 | 0.00 | 0.00 | 0.00 | 93 | 1013.8 |
| 20260905131527 | 26 | 345 | 3.2 | 3.2 | 0.00 | 0.00 | 0.00 | 95 | 1013.5 |
| 20260905131022 | 26 | 327 | 1.6 | 1.6 | 0.00 | 0.00 | 0.00 | 97 | 1013.6 |
| 20260905130521 | 25 | 157 | 0.0 | 3.2 | 0.00 | 0.00 | 0.00 | 98 | 1013.7 |
| 20260905130016 | 25 | 315 | 0.0 | 0.0 | 0.00 | 0.00 | 0.00 | 99 | 1013.6 |
| 20260905125515 | 25 | 336 | 0.0 | 1.6 | 0.00 | 0.00 | 0.00 | 99 | 1013.4 |
| 20260905125011 | 25 | 343 | 0.0 | 3.2 | 0.00 | 0.00 | 0.00 | 99 | 1013.5 |
| 20260905124508 | 24 | 120 | 0.0 | 0.0 | 0.00 | 0.00 | 0.00 | 99 | 1013.4 |
| 20260905124003 | 24 | 0 | 0.0 | 1.6 | 0.00 | 0.00 | 0.00 | 99 | 1013.5 |
| 20260905123459 | 24 | 20 | 0.0 | 1.6 | 0.00 | 0.00 | 0.00 | 99 | 1013.2 |
| 20260905122954 | 23 | 20 | 3.2 | 3.2 | 0.00 | 0.00 | 0.00 | 99 | 1013.3 |
| 20260905122449 | 23 | 352 | 3.2 | 3.2 | 0.00 | 0.00 | 0.00 | 99 | 1013.1 |
| 20260905121944 | 23 | 357 | 3.2 | 3.2 | 0.00 | 0.00 | 0.00 | 99 | 1013.2 |
| 20260905121439 | 23 | 349 | 1.6 | 1.6 | 0.00 | 0.00 | 0.00 | 99 | 1013.1 |
| 20260905120939 | 23 | 7 | 0.0 | 1.6 | 0.00 | 0.00 | 0.00 | 99 | 1013.1 |
| 20260905120433 | 23 | 11 | 0.0 | 3.2 | 0.00 | 0.00 | 0.00 | 99 | 1013.0 |
| 20260905115928 | 23 | 351 | 3.2 | 3.2 | 0.00 | 0.00 | 0.00 | 99 | 1013.1 |
| 20260905115427 | 23 | 322 | 0.0 | 1.6 | 0.00 | 0.00 | 0.00 | 99 | 1013.0 |
| 20260905114923 | 23 | 11 | 3.2 | 4.8 | 0.00 | 0.00 | 0.00 | 99 | 1012.9 |
| 20260905114422 | 23 | 7 | 1.6 | 3.2 | 0.00 | 0.00 | 0.00 | 99 | 1013.2 |
| 20260905113921 | 23 | 4 | 1.6 | 1.6 | 0.00 | 0.00 | 0.00 | 99 | 1012.9 |
| 20260905113417 | 23 | 25 | 0.0 | 1.6 | 0.00 | 0.00 | 0.00 | 99 | 1012.8 |
| 20260905112912 | 23 | 336 | 0.0 | 0.0 | 0.00 | 0.00 | 0.00 | 99 | 1013.0 |
| 20260905112408 | 23 | 104 | 0.0 | 0.0 | 0.00 | 0.00 | 0.00 | 99 | 1012.7 |
| 20260905111903 | 23 | 41 | 0.0 | 1.6 | 0.00 | 0.00 | 0.00 | 99 | 1012.9 |
| 20260905111402 | 23 | 333 | 0.0 | 1.6 | 0.00 | 0.00 | 0.00 | 99 | 1012.9 |
| 20260905110902 | 23 | 302 | 0.0 | 1.6 | 0.00 | 0.00 | 0.00 | 99 | 1012.9 |
| 20260905110356 | 23 | 0 | 0.0 | 0.0 | 0.00 | 0.00 | 0.00 | 99 | 1012.7 |
| 20260905105851 | 23 | 34 | 1.6 | 1.6 | 0.00 | 0.00 | 0.00 | 99 | 1012.7 |
| 20260905105351 | 23 | 25 | 0.0 | 1.6 | 0.00 | 0.00 | 0.00 | 99 | 1012.7 |
| 20260905104850 | 23 | 25 | 0.0 | 0.0 | 0.00 | 0.00 | 0.00 | 99 | 1012.5 |
| 20260905104347 | 23 | 80 | 0.0 | 1.6 | 0.00 | 0.00 | 0.00 | 99 | 1012.5 |
| 20260905103847 | 23 | 315 | 0.0 | 0.0 | 0.00 | 0.00 | 0.00 | 99 | 1012.5 |
| 20260905103342 | 23 | 37 | 0.0 | 1.6 | 0.00 | 0.00 | 0.00 | 99 | 1012.5 |
| 20260905102838 | 24 | 353 | 3.2 | 3.2 | 0.00 | 0.00 | 0.00 | 99 | 1012.5 |
| 20260905102335 | 24 | 340 | 1.6 | 3.2 | 0.00 | 0.00 | 0.00 | 99 | 1012.5 |
| 20260905101834 | 24 | 331 | 0.0 | 1.6 | 0.00 | 0.00 | 0.00 | 99 | 1012.5 |
| 20260905101333 | 24 | 322 | 0.0 | 0.0 | 0.00 | 0.00 | 0.00 | 99 | 1012.5 |
| 20260905100827 | 24 | 322 | 0.0 | 0.0 | 0.00 | 0.00 | 0.00 | 99 | 1012.6 |
| 20260905100324 | 24 | 322 | 0.0 | 0.0 | 0.00 | 0.00 | 0.00 | 99 | 1012.5 |
| 20260905095823 | 24 | 336 | 0.0 | 0.0 | 0.00 | 0.00 | 0.00 | 99 | 1012.5 |
| 20260905095323 | 24 | 55 | 0.0 | 0.0 | 0.00 | 0.00 | 0.00 | 99 | 1012.3 |
| 20260905094817 | 24 | 25 | 0.0 | 0.0 | 0.00 | 0.00 | 0.00 | 98 | 1012.3 |
| 20260905094313 | 24 | 25 | 0.0 | 0.0 | 0.00 | 0.00 | 0.00 | 98 | 1012.4 |
| 20260905093812 | 24 | 25 | 0.0 | 0.0 | 0.00 | 0.00 | 0.00 | 98 | 1012.6 |
| 20260905093308 | 24 | 25 | 0.0 | 0.0 | 0.00 | 0.00 | 0.00 | 98 | 1012.5 |
| 20260905092804 | 24 | 25 | 0.0 | 0.0 | 0.00 | 0.00 | 0.00 | 98 | 1012.4 |
| 20260905092258 | 24 | 343 | 0.0 | 0.0 | 0.00 | 0.00 | 0.00 | 98 | 1012.4 |
| 20260905091759 | 24 | 37 | 0.0 | 0.0 | 0.00 | 0.00 | 0.00 | 98 | 1012.3 |
| 20260905091258 | 24 | 37 | 0.0 | 0.0 | 0.00 | 0.00 | 0.00 | 98 | 1012.6 |
| 20260905090757 | 24 | 37 | 0.0 | 0.0 | 0.00 | 0.00 | 0.00 | 98 | 1012.4 |
| 20260905090253 | 24 | 37 | 0.0 | 0.0 | 0.00 | 0.00 | 0.00 | 98 | 1012.4 |
| 20260905085753 | 24 | 37 | 0.0 | 0.0 | 0.00 | 0.00 | 0.00 | 98 | 1012.4 |
| 20260905085253 | 24 | 37 | 0.0 | 0.0 | 0.00 | 0.00 | 0.00 | 97 | 1012.4 |
| 20260905084748 | 24 | 353 | 0.0 | 0.0 | 0.00 | 0.00 | 0.00 | 97 | 1012.4 |
| 20260905084247 | 25 | 353 | 0.0 | 0.0 | 0.00 | 0.00 | 0.00 | 97 | 1012.5 |
| 20260905083742 | 25 | 327 | 0.0 | 1.6 | 0.00 | 0.00 | 0.00 | 97 | 1012.5 |
| 20260905083238 | 25 | 37 | 0.0 | 0.0 | 0.00 | 0.00 | 0.00 | 97 | 1012.5 |
| 20260905082734 | 25 | 37 | 0.0 | 0.0 | 0.00 | 0.00 | 0.00 | 97 | 1012.5 |
| 20260905082230 | 25 | 37 | 0.0 | 0.0 | 0.00 | 0.00 | 0.00 | 97 | 1012.5 |
| 20260905081730 | 25 | 343 | 0.0 | 0.0 | 0.00 | 0.00 | 0.00 | 97 | 1012.6 |
| 20260905081225 | 25 | 343 | 0.0 | 0.0 | 0.00 | 0.00 | 0.00 | 97 | 1012.3 |
| 20260905080725 | 25 | 76 | 0.0 | 0.0 | 0.00 | 0.00 | 0.00 | 97 | 1012.6 |
| 20260905080224 | 25 | 76 | 0.0 | 0.0 | 0.00 | 0.00 | 0.00 | 97 | 1012.6 |
| 20260905075724 | 25 | 76 | 0.0 | 1.6 | 0.00 | 0.00 | 0.00 | 96 | 1012.5 |
| 20260905075223 | 25 | 6 | 1.6 | 3.2 | 0.00 | 0.00 | 0.00 | 97 | 1012.6 |
| 20260905074722 | 25 | 0 | 1.6 | 3.2 | 0.00 | 0.00 | 0.00 | 96 | 1012.6 |
| 20260905074218 | 25 | 0 | 0.0 | 1.6 | 0.00 | 0.00 | 0.00 | 96 | 1012.6 |
| 20260905073714 | 25 | 326 | 0.0 | 0.0 | 0.00 | 0.00 | 0.00 | 96 | 1012.8 |
| 20260905073209 | 25 | 357 | 1.6 | 1.6 | 0.00 | 0.00 | 0.00 | 96 | 1012.7 |
| 20260905072708 | 25 | 16 | 0.0 | 1.6 | 0.00 | 0.00 | 0.00 | 96 | 1012.5 |
| 20260905072203 | 25 | 37 | 0.0 | 0.0 | 0.00 | 0.00 | 0.00 | 96 | 1012.7 |
| 20260905071700 | 25 | 25 | 0.0 | 0.0 | 0.00 | 0.00 | 0.00 | 96 | 1012.8 |
| 20260905071155 | 25 | 50 | 0.0 | 0.0 | 0.00 | 0.00 | 0.00 | 96 | 1012.7 |
| 20260905070650 | 25 | 50 | 0.0 | 0.0 | 0.00 | 0.00 | 0.00 | 95 | 1012.7 |
| 20260905070146 | 25 | 333 | 0.0 | 1.6 | 0.00 | 0.00 | 0.00 | 95 | 1012.7 |
| 20260905065645 | 25 | 322 | 0.0 | 0.0 | 0.00 | 0.00 | 0.00 | 95 | 1012.7 |
| 20260905065139 | 26 | 309 | 0.0 | 1.6 | 0.00 | 0.00 | 0.00 | 95 | 1012.6 |
| 20260905064635 | 26 | 315 | 0.0 | 1.6 | 0.00 | 0.00 | 0.00 | 94 | 1012.9 |
| 20260905064130 | 26 | 199 | 0.0 | 1.6 | 0.00 | 0.00 | 0.00 | 94 | 1012.8 |
| 20260905063628 | 26 | 0 | 0.0 | 0.0 | 0.00 | 0.00 | 0.00 | 94 | 1012.8 |
| 20260905063126 | 26 | 25 | 0.0 | 0.0 | 0.00 | 0.00 | 0.00 | 95 | 1012.8 |
| 20260905062621 | 26 | 6 | 0.0 | 3.2 | 0.00 | 0.00 | 0.00 | 95 | 1012.9 |
| 20260905062120 | 26 | 8 | 3.2 | 3.2 | 0.00 | 0.00 | 0.00 | 94 | 1012.8 |
| 20260905061615 | 26 | 4 | 3.2 | 3.2 | 0.00 | 0.00 | 0.00 | 94 | 1013.0 |
| 20260905061115 | 26 | 356 | 3.2 | 3.2 | 0.00 | 0.00 | 0.00 | 94 | 1013.0 |
| 20260905060610 | 26 | 357 | 1.6 | 3.2 | 0.00 | 0.00 | 0.00 | 93 | 1013.1 |
| 20260905060106 | 26 | 343 | 1.6 | 1.6 | 0.00 | 0.00 | 0.00 | 92 | 1013.0 |
| 20260905055605 | 26 | 345 | 0.0 | 1.6 | 0.00 | 0.00 | 0.00 | 92 | 1013.0 |
| 20260905055100 | 26 | 0 | 3.2 | 3.2 | 0.00 | 0.00 | 0.00 | 92 | 1013.0 |
| 20260905054555 | 26 | 359 | 3.2 | 3.2 | 0.00 | 0.00 | 0.00 | 91 | 1012.9 |
| 20260905054051 | 26 | 357 | 3.2 | 3.2 | 0.00 | 0.00 | 0.00 | 92 | 1013.0 |
| 20260905053550 | 26 | 311 | 0.0 | 1.6 | 0.00 | 0.00 | 0.00 | 92 | 1012.9 |
| 20260905053046 | 26 | 333 | 0.0 | 1.6 | 0.00 | 0.00 | 0.00 | 92 | 1013.1 |
| 20260905052545 | 26 | 62 | 0.0 | 1.6 | 0.00 | 0.00 | 0.00 | 92 | 1013.1 |
| 20260905052040 | 26 | 15 | 0.0 | 1.6 | 0.00 | 0.00 | 0.00 | 91 | 1012.9 |
| 20260905051535 | 26 | 4 | 1.6 | 3.2 | 0.00 | 0.00 | 0.00 | 90 | 1013.2 |
| 20260905051032 | 26 | 7 | 3.2 | 3.2 | 0.00 | 0.00 | 0.00 | 90 | 1013.1 |
| 20260905050528 | 27 | 19 | 0.0 | 0.0 | 0.00 | 0.00 | 0.00 | 88 | 1013.0 |
| 20260905050025 | 27 | 44 | 0.0 | 1.6 | 0.00 | 0.00 | 0.00 | 87 | 1013.2 |
| 20260905045519 | 27 | 8 | 3.2 | 3.2 | 0.00 | 0.00 | 0.00 | 87 | 1013.2 |
| 20260905045015 | 27 | 351 | 1.6 | 3.2 | 0.00 | 0.00 | 0.00 | 87 | 1013.0 |
| 20260905044515 | 26 | 359 | 1.6 | 3.2 | 0.00 | 0.00 | 0.00 | 88 | 1013.2 |
| 20260905044015 | 26 | 354 | 1.6 | 3.2 | 0.00 | 0.00 | 0.00 | 88 | 1013.2 |
| 20260905043514 | 26 | 349 | 1.6 | 1.6 | 0.00 | 0.00 | 0.00 | 88 | 1012.9 |
| 20260905043009 | 27 | 325 | 0.0 | 0.0 | 0.00 | 0.00 | 0.00 | 88 | 1013.0 |
| 20260905042508 | 27 | 325 | 0.0 | 0.0 | 0.00 | 0.00 | 0.00 | 87 | 1013.1 |
| 20260905042003 | 27 | 297 | 0.0 | 0.0 | 0.00 | 0.00 | 0.00 | 87 | 1013.2 |
| 20260905041459 | 27 | 297 | 0.0 | 0.0 | 0.00 | 0.00 | 0.00 | 87 | 1013.0 |
| 20260905040954 | 27 | 37 | 0.0 | 0.0 | 0.00 | 0.00 | 0.00 | 86 | 1013.1 |
| 20260905040454 | 27 | 195 | 0.0 | 0.0 | 0.00 | 0.00 | 0.00 | 86 | 1013.2 |
| 20260905035953 | 27 | 50 | 0.0 | 0.0 | 0.00 | 0.00 | 0.00 | 86 | 1013.2 |
| 20260905035448 | 27 | 50 | 0.0 | 0.0 | 0.00 | 0.00 | 0.00 | 86 | 1013.2 |
| 20260905034945 | 27 | 50 | 0.0 | 0.0 | 0.00 | 0.00 | 0.00 | 85 | 1013.2 |
| 20260905034440 | 27 | 50 | 0.0 | 0.0 | 0.00 | 0.00 | 0.00 | 84 | 1013.2 |
| 20260905033939 | 27 | 46 | 1.6 | 3.2 | 0.00 | 0.00 | 0.00 | 84 | 1013.2 |
| 20260905033434 | 27 | 357 | 1.6 | 3.2 | 0.00 | 0.00 | 0.00 | 85 | 1013.2 |
| 20260905032934 | 27 | 333 | 0.0 | 1.6 | 0.00 | 0.00 | 0.00 | 85 | 1013.2 |
| 20260905032430 | 27 | 311 | 0.0 | 0.0 | 0.00 | 0.00 | 0.00 | 85 | 1013.2 |
| 20260905031924 | 27 | 15 | 0.0 | 0.0 | 0.00 | 0.00 | 0.00 | 84 | 1013.3 |
| 20260905031420 | 27 | 343 | 0.0 | 1.6 | 0.00 | 0.00 | 0.00 | 84 | 1013.2 |
| 20260905030915 | 27 | 322 | 0.0 | 0.0 | 0.00 | 0.00 | 0.00 | 83 | 1013.2 |
| 20260905030411 | 27 | 205 | 0.0 | 0.0 | 0.00 | 0.00 | 0.00 | 82 | 1013.3 |
| 20260905025909 | 27 | 205 | 0.0 | 0.0 | 0.00 | 0.00 | 0.00 | 82 | 1013.1 |
| 20260905025405 | 28 | 195 | 0.0 | 1.6 | 0.00 | 0.00 | 0.00 | 81 | 1013.0 |
| 20260905024902 | 28 | 284 | 0.0 | 0.0 | 0.00 | 0.00 | 0.00 | 80 | 1013.3 |
| 20260905024356 | 28 | 309 | 0.0 | 0.0 | 0.00 | 0.00 | 0.00 | 80 | 1013.0 |
| 20260905023852 | 28 | 269 | 0.0 | 0.0 | 0.00 | 0.00 | 0.00 | 79 | 1013.1 |
| 20260905023347 | 28 | 164 | 0.0 | 0.0 | 0.00 | 0.00 | 0.00 | 79 | 1012.9 |
| 20260905022846 | 28 | 164 | 0.0 | 0.0 | 0.00 | 0.00 | 0.00 | 79 | 1013.0 |